createdAt,value
2023-03-02T00:01:31.264Z,96193.53
2023-03-02T00:03:59.060Z,96185.56
2023-03-02T00:06:26.522Z,96191.84
2023-03-02T00:08:53.061Z,96197.19
2023-03-02T00:11:21.435Z,96192.81
2023-03-02T00:13:47.905Z,96188.34
2023-03-02T00:16:14.453Z,96196.34
2023-03-02T00:18:41.331Z,96191.13
2023-03-02T00:21:10.499Z,96196.44
2023-03-02T00:23:37.864Z,96200.91
2023-03-02T00:26:05.305Z,96199.19
2023-03-02T00:28:32.204Z,96202.72
2023-03-02T00:30:59.155Z,96200.16
2023-03-02T00:33:25.803Z,96194.72
2023-03-02T00:35:52.359Z,96188.66
2023-03-02T00:38:18.905Z,96186.84
2023-03-02T00:40:46.493Z,96180.69
2023-03-02T00:43:13.238Z,96188.66
2023-03-02T00:45:39.742Z,96192.16
2023-03-02T00:48:06.291Z,96187.72
2023-03-02T00:50:32.903Z,96186.84
2023-03-02T00:52:59.673Z,96184.31
2023-03-02T00:55:26.177Z,96183.34
2023-03-02T00:57:55.016Z,96187.81
2023-03-02T01:00:29.734Z,96183.44
2023-03-02T01:03:01.479Z,96180.78
2023-03-02T01:05:28.501Z,96178.13
2023-03-02T01:07:55.206Z,96168.34
2023-03-02T01:10:21.852Z,96166.66
2023-03-02T01:12:48.341Z,96168.47
2023-03-02T01:15:14.811Z,96161.31
2023-03-02T01:17:42.902Z,96163.13
2023-03-02T01:20:10.174Z,96161.44
2023-03-02T01:22:36.644Z,96160.59
2023-03-02T01:25:03.507Z,96145.59
2023-03-02T01:27:30.033Z,96148.13
2023-03-02T01:29:57.062Z,96145.47
2023-03-02T01:32:23.645Z,96142.06
2023-03-02T01:34:50.193Z,96141.22
2023-03-02T01:37:16.745Z,96134.09
2023-03-02T01:39:43.323Z,96128.75
2023-03-02T01:42:11.828Z,96131.44
2023-03-02T01:44:43.128Z,96130.59
2023-03-02T01:47:17.413Z,96127.94
2023-03-02T01:49:57.482Z,96135.06
2023-03-02T01:52:26.266Z,96130.59
2023-03-02T01:54:53.577Z,96128.03
2023-03-02T01:57:23.497Z,96126.25
2023-03-02T01:59:50.733Z,96108.56
2023-03-02T02:02:17.255Z,96116.56
2023-03-02T02:04:44.482Z,96116.56
2023-03-02T02:07:11.145Z,96115.72
2023-03-02T02:09:44.895Z,96112.19
2023-03-02T02:12:16.012Z,96107.72
2023-03-02T02:14:42.665Z,96106.84
2023-03-02T02:17:11.810Z,96105.06
2023-03-02T02:19:40.653Z,96100.69
2023-03-02T02:22:08.621Z,96104.19
2023-03-02T02:24:39.596Z,96097.09
2023-03-02T02:27:06.154Z,96098.88
2023-03-02T02:29:37.367Z,96096.34
2023-03-02T02:32:07.208Z,96090.06
2023-03-02T02:34:53.670Z,96082.19
2023-03-02T02:37:47.059Z,96087.50
2023-03-02T02:40:21.303Z,96086.66
2023-03-02T02:42:50.006Z,96079.53
2023-03-02T02:45:24.258Z,96080.50
2023-03-02T02:47:51.890Z,96077.94
2023-03-02T02:50:19.578Z,96077.00
2023-03-02T02:52:46.950Z,96079.75
2023-03-02T02:55:16.557Z,96075.28
2023-03-02T02:57:43.369Z,96075.28
2023-03-02T03:00:12.257Z,96069.13
2023-03-02T03:02:41.294Z,96069.97
2023-03-02T03:05:10.041Z,96068.28
2023-03-02T03:07:36.808Z,96072.72
2023-03-02T03:10:13.767Z,96070.94
2023-03-02T03:12:40.538Z,96073.59
2023-03-02T03:15:07.345Z,96077.09
2023-03-02T03:17:34.281Z,96073.59
2023-03-02T03:20:09.320Z,96075.38
2023-03-02T03:22:40.277Z,96076.38
2023-03-02T03:25:09.662Z,96075.38
2023-03-02T03:27:36.211Z,96071.88
2023-03-02T03:30:04.163Z,96076.38
2023-03-02T03:32:34.351Z,96066.69
2023-03-02T03:35:03.547Z,96069.22
2023-03-02T03:37:32.187Z,96064.00
2023-03-02T03:39:59.416Z,96068.38
2023-03-02T03:42:26.510Z,96067.56
2023-03-02T03:44:55.016Z,96066.56
2023-03-02T03:47:22.106Z,96057.84
2023-03-02T03:49:50.076Z,96059.56
2023-03-02T03:52:17.493Z,96063.19
2023-03-02T03:54:44.148Z,96065.00
2023-03-02T03:57:12.134Z,96058.84
2023-03-02T03:59:39.465Z,96063.28
2023-03-02T04:02:06.585Z,96062.34
2023-03-02T04:04:36.258Z,96064.16
2023-03-02T04:07:15.757Z,96060.63
2023-03-02T04:09:43.923Z,96066.81
2023-03-02T04:12:12.897Z,96065.00
2023-03-02T04:14:43.873Z,96066.81
2023-03-02T04:17:11.245Z,96069.47
2023-03-02T04:19:41.543Z,96066.91
2023-03-02T04:22:10.228Z,96066.81
2023-03-02T04:24:38.248Z,96066.81
2023-03-02T04:27:04.981Z,96065.09
2023-03-02T04:29:32.867Z,96065.94
2023-03-02T04:32:01.534Z,96070.41
2023-03-02T04:34:29.248Z,96066.91
2023-03-02T04:36:56.318Z,96068.72
2023-03-02T04:39:22.892Z,96071.38
2023-03-02T04:41:51.037Z,96068.72
2023-03-02T04:44:18.484Z,96062.44
2023-03-02T04:46:45.990Z,96065.22
2023-03-02T04:49:13.097Z,96059.88
2023-03-02T04:51:41.041Z,96065.22
2023-03-02T04:54:13.786Z,96062.53
2023-03-02T04:56:40.281Z,96059.03
2023-03-02T04:59:06.906Z,96054.81
2023-03-02T05:01:33.445Z,96050.22
2023-03-02T05:04:02.736Z,96051.16
2023-03-02T05:06:29.594Z,96049.34
2023-03-02T05:08:59.743Z,96058.22
2023-03-02T05:11:27.245Z,96053.84
2023-03-02T05:13:54.877Z,96056.50
2023-03-02T05:16:21.806Z,96058.31
2023-03-02T05:18:48.388Z,96053.94
2023-03-02T05:21:15.487Z,96053.94
2023-03-02T05:23:42.841Z,96051.28
2023-03-02T05:26:09.566Z,96045.97
2023-03-02T05:28:36.004Z,96046.84
2023-03-02T05:31:02.804Z,96047.66
2023-03-02T05:33:29.727Z,96038.72
2023-03-02T05:35:56.535Z,96046.69
2023-03-02T05:38:23.256Z,96048.41
2023-03-02T05:40:49.751Z,96058.22
2023-03-02T05:43:17.541Z,96061.72
2023-03-02T05:45:44.204Z,96059.03
2023-03-02T05:48:10.864Z,96061.72
2023-03-02T05:50:37.791Z,96070.63
2023-03-02T05:53:04.579Z,96081.16
2023-03-02T05:55:31.160Z,96078.41
2023-03-02T05:57:57.662Z,96084.44
2023-03-02T06:00:24.291Z,96078.03
2023-03-02T06:02:50.856Z,96088.38
2023-03-02T06:05:18.357Z,96093.44
2023-03-02T06:07:44.785Z,96098.44
2023-03-02T06:10:11.769Z,96101.72
2023-03-02T06:12:40.256Z,96101.50
2023-03-02T06:15:07.341Z,96103.94
2023-03-02T06:17:33.779Z,96105.44
2023-03-02T06:20:00.401Z,96110.66
2023-03-02T06:22:27.060Z,96109.69
2023-03-02T06:24:55.240Z,96111.25
2023-03-02T06:27:21.732Z,96122.53
2023-03-02T06:29:48.861Z,96118.66
2023-03-02T06:32:15.648Z,96118.66
2023-03-02T06:34:42.313Z,96105.50
2023-03-02T06:37:09.070Z,96115.16
2023-03-02T06:39:35.548Z,96113.34
2023-03-02T06:42:01.965Z,96112.50
2023-03-02T06:44:29.167Z,96119.41
2023-03-02T06:46:55.692Z,96127.28
2023-03-02T06:49:22.235Z,96143.88
2023-03-02T06:51:48.686Z,96137.25
2023-03-02T06:54:15.280Z,96153.72
2023-03-02T06:56:41.878Z,96138.59
2023-03-02T06:59:08.725Z,96122.84
2023-03-02T07:01:35.809Z,96108.06
2023-03-02T07:04:02.885Z,96105.50
2023-03-02T07:06:29.426Z,96116.91
2023-03-02T07:08:56.746Z,96114.84
2023-03-02T07:11:23.175Z,96116.00
2023-03-02T07:13:49.746Z,96130.41
2023-03-02T07:16:17.219Z,96136.72
2023-03-02T07:18:43.718Z,96144.13
2023-03-02T07:21:10.224Z,96141.97
2023-03-02T07:23:36.790Z,96166.25
2023-03-02T07:26:08.218Z,96158.50
2023-03-02T07:28:39.647Z,96159.03
2023-03-02T07:31:06.776Z,96167.38
2023-03-02T07:33:33.215Z,96164.72
2023-03-02T07:36:00.583Z,96162.03
2023-03-02T07:38:27.318Z,96161.31
2023-03-02T07:40:53.901Z,96158.91
2023-03-02T07:43:20.341Z,96158.03
2023-03-02T07:45:46.837Z,96148.47
2023-03-02T07:48:13.252Z,96162.53
2023-03-02T07:50:40.426Z,96163.38
2023-03-02T07:53:07.000Z,96157.19
2023-03-02T07:55:33.628Z,96159.84
2023-03-02T07:58:00.320Z,96156.34
2023-03-02T08:00:26.944Z,96158.03
2023-03-02T08:02:53.463Z,96155.25
2023-03-02T08:05:20.289Z,96152.47
2023-03-02T08:07:47.014Z,96153.47
2023-03-02T08:10:13.536Z,96158.53
2023-03-02T08:12:40.137Z,96161.09
2023-03-02T08:15:06.792Z,96158.44
2023-03-02T08:17:33.282Z,96159.16
2023-03-02T08:20:00.566Z,96156.28
2023-03-02T08:22:26.996Z,96157.00
2023-03-02T08:24:53.431Z,96160.25
2023-03-02T08:27:20.241Z,96162.69
2023-03-02T08:29:46.715Z,96165.34
2023-03-02T08:32:13.419Z,96166.06
2023-03-02T08:34:40.140Z,96172.75
2023-03-02T08:37:06.620Z,96169.09
2023-03-02T08:39:33.215Z,96166.22
2023-03-02T08:41:59.725Z,96168.75
2023-03-02T08:44:26.181Z,96166.94
2023-03-02T08:46:52.733Z,96163.31
2023-03-02T08:49:19.341Z,96159.66
2023-03-02T08:51:45.950Z,96163.06
2023-03-02T08:54:12.599Z,96166.56
2023-03-02T08:56:39.500Z,96168.16
2023-03-02T08:59:06.961Z,96171.19
2023-03-02T09:01:34.898Z,96183.84
2023-03-02T09:04:01.758Z,96185.78
2023-03-02T09:06:29.592Z,96188.78
2023-03-02T09:08:56.593Z,96181.28
2023-03-02T09:11:23.168Z,96176.66
2023-03-02T09:13:49.744Z,96176.66
2023-03-02T09:16:16.584Z,96179.22
2023-03-02T09:18:43.116Z,96184.56
2023-03-02T09:21:09.780Z,96184.41
2023-03-02T09:23:36.603Z,96181.75
2023-03-02T09:26:03.531Z,96185.41
2023-03-02T09:28:31.628Z,96174.84
2023-03-02T09:30:59.252Z,96180.06
2023-03-02T09:33:26.156Z,96181.75
2023-03-02T09:35:52.582Z,96186.13
2023-03-02T09:38:19.146Z,96180.66
2023-03-02T09:40:49.311Z,96194.84
2023-03-02T09:43:33.957Z,96175.19
2023-03-02T09:46:10.339Z,96190.25
2023-03-02T09:48:46.849Z,96188.28
2023-03-02T09:51:21.595Z,96190.72
2023-03-02T09:54:06.713Z,96195.81
2023-03-02T09:56:34.752Z,96204.41
2023-03-02T09:59:03.182Z,96192.91
2023-03-02T10:01:36.563Z,96186.56
2023-03-02T10:04:18.464Z,96190.13
2023-03-02T10:06:45.485Z,96189.97
2023-03-02T10:09:12.100Z,96208.31
2023-03-02T10:12:11.069Z,96204.41
2023-03-02T10:14:48.641Z,96196.13
2023-03-02T10:17:33.831Z,96214.47
2023-03-02T10:20:02.395Z,96221.38
2023-03-02T10:22:30.189Z,96215.06
2023-03-02T10:25:09.223Z,96208.75
2023-03-02T10:27:39.623Z,96209.59
2023-03-02T10:30:17.821Z,96207.06
2023-03-02T10:32:51.195Z,96193.81
2023-03-02T10:35:25.366Z,96195.63
2023-03-02T10:37:52.507Z,96196.63
2023-03-02T10:40:28.075Z,96195.91
2023-03-02T10:42:54.611Z,96196.72
2023-03-02T10:45:27.194Z,96191.50
2023-03-02T10:48:04.905Z,96195.16
2023-03-02T10:50:31.790Z,96185.59
2023-03-02T10:53:01.125Z,96186.56
2023-03-02T10:55:28.213Z,96186.56
2023-03-02T10:58:06.027Z,96184.00
2023-03-02T11:00:33.205Z,96183.16
2023-03-02T11:03:01.765Z,96183.28
2023-03-02T11:05:31.071Z,96180.72
2023-03-02T11:07:58.647Z,96178.22
2023-03-02T11:10:26.792Z,96180.88
2023-03-02T11:12:53.708Z,96180.16
2023-03-02T11:15:20.408Z,96181.13
2023-03-02T11:17:48.796Z,96171.66
2023-03-02T11:20:16.817Z,96171.66
2023-03-02T11:22:47.922Z,96168.38
2023-03-02T11:25:25.572Z,96165.72
2023-03-02T11:27:54.901Z,96165.84
2023-03-02T11:30:22.724Z,96166.56
2023-03-02T11:32:55.536Z,96157.84
2023-03-02T11:35:22.882Z,96161.38
2023-03-02T11:37:52.905Z,96160.50
2023-03-02T11:40:26.508Z,96164.16
2023-03-02T11:42:53.151Z,96158.81
2023-03-02T11:45:21.701Z,96155.31
2023-03-02T11:48:02.207Z,96147.31
2023-03-02T11:50:29.738Z,96142.94
2023-03-02T11:52:59.878Z,96145.72
2023-03-02T11:55:27.028Z,96145.81
2023-03-02T11:57:57.767Z,96140.63
2023-03-02T12:00:29.814Z,96145.09
2023-03-02T12:03:00.630Z,96136.16
2023-03-02T12:05:28.260Z,96138.94
2023-03-02T12:07:58.576Z,96135.41
2023-03-02T12:10:30.465Z,96131.91
2023-03-02T12:13:15.860Z,96136.38
2023-03-02T12:15:43.504Z,96132.03
2023-03-02T12:18:22.300Z,96132.88
2023-03-02T12:20:58.640Z,96134.69
2023-03-02T12:23:25.149Z,96129.47
2023-03-02T12:26:01.901Z,96129.47
2023-03-02T12:28:30.522Z,96126.81
2023-03-02T12:31:01.517Z,96129.59
2023-03-02T12:33:28.061Z,96122.59
2023-03-02T12:36:02.840Z,96124.38
2023-03-02T12:38:33.766Z,96123.41
2023-03-02T12:41:07.097Z,96120.75
2023-03-02T12:43:37.737Z,96118.94
2023-03-02T12:46:23.077Z,96118.09
2023-03-02T12:48:52.733Z,96118.94
2023-03-02T12:51:23.435Z,96119.75
2023-03-02T12:53:50.650Z,96118.94
2023-03-02T12:56:24.002Z,96119.75
2023-03-02T12:58:50.898Z,96108.25
2023-03-02T13:01:20.751Z,96109.09
2023-03-02T13:03:47.894Z,96107.41
2023-03-02T13:06:15.383Z,96110.91
2023-03-02T13:08:45.423Z,96110.06
2023-03-02T13:11:12.084Z,96102.06
2023-03-02T13:13:40.017Z,96104.75
2023-03-02T13:16:22.730Z,96101.22
2023-03-02T13:18:49.942Z,96109.09
2023-03-02T13:21:16.580Z,96106.41
2023-03-02T13:23:49.031Z,96108.38
2023-03-02T13:26:42.152Z,96111.75
2023-03-02T13:29:23.872Z,96119.75
2023-03-02T13:31:50.568Z,96114.44
2023-03-02T13:34:28.934Z,96106.41
2023-03-02T13:36:55.974Z,96107.28
2023-03-02T13:39:26.542Z,96110.81
2023-03-02T13:41:55.069Z,96103.75
2023-03-02T13:44:27.985Z,96113.47
2023-03-02T13:46:54.621Z,96102.78
2023-03-02T13:49:36.549Z,96115.19
2023-03-02T13:52:06.375Z,96108.84
2023-03-02T13:54:34.998Z,96107.19
2023-03-02T13:57:02.602Z,96108.00
2023-03-02T13:59:29.122Z,96101.69
2023-03-02T14:01:55.606Z,96115.41
2023-03-02T14:04:23.508Z,96116.00
2023-03-02T14:06:50.685Z,96113.91
2023-03-02T14:09:17.384Z,96105.91
2023-03-02T14:11:44.573Z,96102.91
2023-03-02T14:14:12.478Z,96093.69
2023-03-02T14:16:39.221Z,96079.75
2023-03-02T14:19:06.353Z,96084.34
2023-03-02T14:21:33.024Z,96079.41
2023-03-02T14:23:59.986Z,96074.47
2023-03-02T14:26:39.354Z,96060.75
2023-03-02T14:29:24.986Z,96061.84
2023-03-02T14:31:51.656Z,96066.47
2023-03-02T14:34:19.421Z,96078.81
2023-03-02T14:36:47.090Z,96073.38
2023-03-02T14:39:29.463Z,96082.97
2023-03-02T14:41:56.818Z,96080.88
2023-03-02T14:44:23.840Z,96075.41
2023-03-02T14:46:51.206Z,96077.13
2023-03-02T14:49:17.639Z,96092.03
2023-03-02T14:51:44.206Z,96082.19
2023-03-02T14:54:13.841Z,96083.91
2023-03-02T14:56:40.479Z,96076.75
2023-03-02T14:59:08.912Z,96074.06
2023-03-02T15:01:36.133Z,96069.72
2023-03-02T15:04:02.794Z,96078.56
2023-03-02T15:06:30.769Z,96083.06
2023-03-02T15:08:58.237Z,96077.72
2023-03-02T15:11:25.140Z,96074.19
2023-03-02T15:13:51.642Z,96072.38
2023-03-02T15:16:18.444Z,96083.91
2023-03-02T15:18:44.961Z,96082.19
2023-03-02T15:21:14.390Z,96075.91
2023-03-02T15:23:40.981Z,96090.19
2023-03-02T15:26:09.343Z,96084.84
2023-03-02T15:28:35.795Z,96084.97
2023-03-02T15:31:12.196Z,96079.63
2023-03-02T15:33:39.970Z,96077.84
2023-03-02T15:36:07.153Z,96087.66
2023-03-02T15:38:34.314Z,96086.91
2023-03-02T15:41:04.703Z,96069.34
2023-03-02T15:43:31.286Z,96060.03
2023-03-02T15:45:57.949Z,96068.38
2023-03-02T15:48:24.459Z,96065.09
2023-03-02T15:51:00.794Z,96057.50
2023-03-02T15:53:27.874Z,96057.00
2023-03-02T15:55:54.546Z,96053.84
2023-03-02T15:58:21.956Z,96043.69
2023-03-02T16:00:49.119Z,96043.94
2023-03-02T16:03:16.033Z,96046.00
2023-03-02T16:05:42.876Z,96047.81
2023-03-02T16:08:09.512Z,96050.50
2023-03-02T16:10:36.727Z,96054.00
2023-03-02T16:13:03.693Z,96053.16
2023-03-02T16:15:30.208Z,96051.34
2023-03-02T16:17:56.886Z,96053.16
2023-03-02T16:20:23.463Z,96060.53
2023-03-02T16:22:49.947Z,96069.72
2023-03-02T16:25:16.410Z,96076.16
2023-03-02T16:27:47.389Z,96088.78
2023-03-02T16:30:15.321Z,96088.88
2023-03-02T16:32:41.907Z,96101.88
2023-03-02T16:35:09.018Z,96101.63
2023-03-02T16:37:36.075Z,96100.41
2023-03-02T16:40:02.643Z,96111.66
2023-03-02T16:42:31.560Z,96111.41
2023-03-02T16:44:58.256Z,96112.16
2023-03-02T16:47:25.009Z,96118.19
2023-03-02T16:49:51.606Z,96121.59
2023-03-02T16:52:18.546Z,96127.78
2023-03-02T16:54:45.085Z,96129.47
2023-03-02T16:57:11.584Z,96141.09
2023-03-02T16:59:38.635Z,96142.81
2023-03-02T17:02:06.530Z,96148.88
2023-03-02T17:04:34.913Z,96153.25
2023-03-02T17:07:01.658Z,96159.44
2023-03-02T17:09:28.257Z,96159.44
2023-03-02T17:11:55.434Z,96167.31
2023-03-02T17:14:22.302Z,96172.50
2023-03-02T17:16:49.065Z,96173.25
2023-03-02T17:19:16.482Z,96183.91
2023-03-02T17:21:43.676Z,96185.63
2023-03-02T17:24:10.118Z,96187.34
2023-03-02T17:26:36.534Z,96193.50
2023-03-02T17:29:02.994Z,96197.88
2023-03-02T17:31:30.726Z,96196.91
2023-03-02T17:33:58.883Z,96199.47
2023-03-02T17:36:25.337Z,96205.63
2023-03-02T17:38:52.014Z,96208.19
2023-03-02T17:41:18.467Z,96214.25
2023-03-02T17:43:45.155Z,96207.19
2023-03-02T17:46:11.761Z,96214.25
2023-03-02T17:48:39.032Z,96215.94
2023-03-02T17:51:05.633Z,96218.38
2023-03-02T17:53:32.137Z,96230.38
2023-03-02T17:55:58.694Z,96232.66
2023-03-02T17:58:26.731Z,96241.50
2023-03-02T18:00:54.968Z,96227.44
2023-03-02T18:03:22.484Z,96229.38
2023-03-02T18:05:48.993Z,96227.72
2023-03-02T18:08:15.461Z,96230.38
2023-03-02T18:10:42.492Z,96235.84
2023-03-02T18:13:09.003Z,96228.78
2023-03-02T18:15:35.661Z,96224.44
2023-03-02T18:18:02.279Z,96233.41
2023-03-02T18:20:31.396Z,96227.94
2023-03-02T18:22:58.554Z,96235.13
2023-03-02T18:25:25.276Z,96239.47
2023-03-02T18:27:52.060Z,96247.47
2023-03-02T18:30:20.000Z,96248.34
2023-03-02T18:32:47.237Z,96252.81
2023-03-02T18:35:13.890Z,96252.69
2023-03-02T18:37:40.499Z,96253.53
2023-03-02T18:40:07.320Z,96261.53
2023-03-02T18:42:33.882Z,96267.75
2023-03-02T18:45:01.438Z,96262.41
2023-03-02T18:47:29.000Z,96268.47
2023-03-02T18:49:55.591Z,96266.66
2023-03-02T18:52:22.084Z,96274.66
2023-03-02T18:54:49.489Z,96273.69
2023-03-02T18:57:16.531Z,96276.38
2023-03-02T18:59:42.996Z,96278.91
2023-03-02T19:02:11.901Z,96288.72
2023-03-02T19:04:38.342Z,96285.09
2023-03-02T19:07:06.907Z,96280.72
2023-03-02T19:09:34.751Z,96284.22
2023-03-02T19:12:01.334Z,96273.56
2023-03-02T19:14:30.034Z,96274.44
2023-03-02T19:16:57.132Z,96268.09
2023-03-02T19:19:23.624Z,96276.09
2023-03-02T19:21:50.330Z,96280.72
2023-03-02T19:24:17.038Z,96286.78
2023-03-02T19:26:43.785Z,96281.56
2023-03-02T19:29:10.223Z,96278.91
2023-03-02T19:31:39.927Z,96284.22
2023-03-02T19:34:06.949Z,96279.88
2023-03-02T19:36:33.572Z,96278.91
2023-03-02T19:39:01.357Z,96276.22
2023-03-02T19:41:28.204Z,96279.03
2023-03-02T19:43:54.906Z,96280.72
2023-03-02T19:46:21.507Z,96283.41
2023-03-02T19:48:48.166Z,96280.00
2023-03-02T19:51:15.287Z,96277.22
2023-03-02T19:53:41.804Z,96283.50
2023-03-02T19:56:09.395Z,96280.84
2023-03-02T19:58:36.028Z,96283.50
2023-03-02T20:01:04.015Z,96288.84
2023-03-02T20:03:30.604Z,96282.66
2023-03-02T20:05:58.958Z,96281.72
2023-03-02T20:08:25.558Z,96289.72
2023-03-02T20:10:52.112Z,96284.38
2023-03-02T20:13:18.606Z,96291.53
2023-03-02T20:15:45.957Z,96290.56
2023-03-02T20:18:16.616Z,96287.06
2023-03-02T20:20:45.110Z,96291.53
2023-03-02T20:23:11.828Z,96282.78
2023-03-02T20:25:38.714Z,96282.66
2023-03-02T20:28:05.764Z,96289.00
2023-03-02T20:30:35.379Z,96284.63
2023-03-02T20:33:02.480Z,96286.31
2023-03-02T20:35:29.930Z,96288.13
2023-03-02T20:37:56.746Z,96293.47
2023-03-02T20:40:23.497Z,96290.06
2023-03-02T20:42:50.033Z,96282.56
2023-03-02T20:45:16.624Z,96284.16
2023-03-02T20:47:45.243Z,96277.69
2023-03-02T20:50:14.753Z,96273.22
2023-03-02T20:52:41.432Z,96270.28
2023-03-02T20:55:08.144Z,96274.16
2023-03-02T20:57:34.750Z,96276.53
2023-03-02T21:00:01.418Z,96274.56
2023-03-02T21:02:28.281Z,96270.72
2023-03-02T21:04:54.875Z,96269.47
2023-03-02T21:07:21.439Z,96278.66
2023-03-02T21:09:48.181Z,96271.75
2023-03-02T21:12:14.943Z,96274.75
2023-03-02T21:14:41.727Z,96271.63
2023-03-02T21:17:08.749Z,96271.09
2023-03-02T21:19:35.703Z,96279.31
2023-03-02T21:22:02.518Z,96280.50
2023-03-02T21:24:29.070Z,96284.38
2023-03-02T21:26:56.045Z,96283.03
2023-03-02T21:29:24.217Z,96286.88
2023-03-02T21:31:50.696Z,96289.97
2023-03-02T21:34:18.894Z,96291.16
2023-03-02T21:36:46.072Z,96291.53
2023-03-02T21:39:12.745Z,96293.56
2023-03-02T21:41:40.214Z,96293.78
2023-03-02T21:44:06.946Z,96291.34
2023-03-02T21:46:34.150Z,96290.63
2023-03-02T21:49:01.059Z,96299.66
2023-03-02T21:51:27.887Z,96303.41
2023-03-02T21:53:54.399Z,96305.44
2023-03-02T21:56:22.940Z,96274.84
2023-03-02T21:58:49.824Z,96304.81
2023-03-02T22:01:16.352Z,96302.38
2023-03-02T22:03:43.134Z,96313.97
2023-03-02T22:06:12.099Z,96313.25
2023-03-02T22:08:39.224Z,96319.66
2023-03-02T22:11:05.860Z,96314.44
2023-03-02T22:13:32.899Z,96312.72
2023-03-02T22:16:16.160Z,96320.69
2023-03-02T22:18:43.183Z,96317.28
2023-03-02T22:21:18.670Z,96320.94
2023-03-02T22:23:45.197Z,96322.84
2023-03-02T22:26:15.701Z,96322.03
2023-03-02T22:28:42.424Z,96312.41
2023-03-02T22:31:19.116Z,96316.91
2023-03-02T22:33:45.685Z,96314.44
2023-03-02T22:36:20.919Z,96324.16
2023-03-02T22:38:50.285Z,96318.94
2023-03-02T22:41:18.782Z,96319.91
2023-03-02T22:43:46.022Z,96325.34
2023-03-02T22:46:15.765Z,96318.28
2023-03-02T22:48:45.827Z,96325.44
2023-03-02T22:51:15.390Z,96321.09
2023-03-02T22:53:45.193Z,96323.84
2023-03-02T22:56:30.460Z,96314.25
2023-03-02T22:59:07.405Z,96319.56
2023-03-02T23:01:38.391Z,96328.44
2023-03-02T23:04:07.947Z,96324.06
2023-03-02T23:06:38.468Z,96319.81
2023-03-02T23:09:06.191Z,96317.16
2023-03-02T23:11:37.577Z,96318.09
2023-03-02T23:14:11.012Z,96320.00
2023-03-02T23:16:37.574Z,96322.69
2023-03-02T23:19:05.378Z,96319.25
2023-03-02T23:21:41.726Z,96315.66
2023-03-02T23:24:09.011Z,96317.44
2023-03-02T23:26:35.790Z,96309.56
2023-03-02T23:29:02.449Z,96313.06
2023-03-02T23:31:29.025Z,96308.59
2023-03-02T23:33:56.123Z,96312.22
2023-03-02T23:36:23.246Z,96310.53
2023-03-02T23:38:49.788Z,96306.16
2023-03-02T23:41:16.447Z,96312.34
2023-03-02T23:43:43.345Z,96301.78
2023-03-02T23:46:13.904Z,96303.63
2023-03-02T23:48:41.259Z,96299.22
2023-03-02T23:51:08.530Z,96303.72
2023-03-02T23:53:35.011Z,96303.72
2023-03-02T23:56:01.450Z,96290.50
2023-03-02T23:58:27.955Z,96302.13
